Dolliver, Iowa
Current Conditions -  °F | °C
As of 9:52 PM on Thursday 20 Nov 2014 (Local Time) from KEST Reporting Station
Clear Clear  
Wind Chill: -10°   Ceiling: Unl
Heat Index:   Visibility: 10mi
Dew Point: -2°   Wind: 5mph
Humidity: 91%   Direction: 180°S
Pressure: 30.23"   Gusts: NA
Location:  43.46°N, 94.63°W
Report Text: KEST 210352Z AUTO 18004KT 10SM CLR M18/M19 A3023 RMK AO2 SLP268 I1000 T11781189
Loading
Personal Weather Stations






























Interactive Weather Map New forecast layout! Learn more

10-Day Weather Forecast

Advertisements
Track Severe Weather on mobile